Petersburg, West Virginia
Current Conditions -  °F | °C
As of 4:15 PM on Tuesday 21 Oct 2014 (Local Time) from K8W2 Reporting Station
Overcast Overcast  
Wind Chill: 53°   Ceiling: 4900
Heat Index: 53°   Visibility: 5mi
Dew Point: 51°   Wind: 6mph
Humidity: 94%   Direction: 90°E
Pressure: 29.86"   Gusts: NA
Location:  38.99°N, 79.12°W
Report Text: K8W2 212015Z AUTO 09005KT 5SM OVC049 12/11 A2986 RMK AO1 P0003 T01170107
Loading
Personal Weather Stations






























Interactive Weather Map
Tropical Storm Tracking
New forecast layout! Learn more

10-Day Weather Forecast

Advertisements
Track Severe Weather on mobile